Time;durP1;ratioP1;P1;durP2;ratioP2;P2;SDS_P1;SDS_P2;PMS_P1;PMS_P2;Temp;Humidity;BMP_temperature;BMP_pressure;BME280_temperature;BME280_humidity;BME280_pressure;Samples;Min_cycle;Max_cycle;Signal;HPM_P1;HPM_P2
2023/09/07 00:01:23;;;;;;;;;5.25;5.00;;;;;27.06;41.63;101127.00;4960427;28;45354;-38
2023/09/07 00:03:49;;;;;;;;;6.00;5.50;;;;;27.05;41.87;101125.28;4959964;28;46447;-38
2023/09/07 00:06:14;;;;;;;;;6.25;6.00;;;;;27.04;41.90;101123.59;4960176;28;45242;-39
2023/09/07 00:08:40;;;;;;;;;9.00;6.25;;;;;27.05;41.59;101116.44;4942937;28;45297;-40
2023/09/07 00:11:11;;;;;;;;;6.75;6.00;;;;;27.05;42.05;101114.66;4960279;28;45212;-41
2023/09/07 00:13:37;;;;;;;;;6.00;6.00;;;;;27.05;41.71;101117.31;4942888;28;45421;-40
2023/09/07 00:16:03;;;;;;;;;6.00;6.00;;;;;27.06;41.64;101118.16;4959776;28;45345;-38
2023/09/07 00:18:30;;;;;;;;;9.25;6.00;;;;;27.04;41.52;101112.97;4959864;28;45219;-41
2023/09/07 00:20:55;;;;;;;;;6.00;5.00;;;;;27.04;42.01;101115.63;4960209;28;45284;-40
2023/09/07 00:23:21;;;;;;;;;5.00;5.00;;;;;27.04;41.70;101099.66;4959647;28;47160;-38
2023/09/07 00:25:46;;;;;;;;;6.75;5.00;;;;;27.03;41.98;101105.94;4960042;28;45253;-39
2023/09/07 00:28:12;;;;;;;;;7.25;6.25;;;;;27.03;41.72;101111.25;4959809;28;45409;-38
2023/09/07 00:30:37;;;;;;;;;3.00;3.00;;;;;27.04;41.18;101106.78;4959863;28;45389;-38
2023/09/07 00:33:03;;;;;;;;;6.25;6.00;;;;;27.01;41.00;101103.38;4959284;28;46508;-38
2023/09/07 00:35:28;;;;;;;;;4.00;4.00;;;;;27.01;40.86;101099.88;4959346;28;45434;-40
2023/09/07 00:37:54;;;;;;;;;6.50;5.50;;;;;27.00;41.08;101104.38;4959787;28;45857;-39
2023/09/07 00:40:20;;;;;;;;;6.75;6.00;;;;;27.00;41.34;101107.03;4959746;28;45461;-39
2023/09/07 00:42:45;;;;;;;;;7.25;5.00;;;;;26.99;41.42;101113.31;4942286;28;47013;-40
2023/09/07 00:45:11;;;;;;;;;5.50;5.50;;;;;27.00;41.80;101108.84;4941973;28;45342;-38
2023/09/07 00:47:36;;;;;;;;;5.00;4.00;;;;;27.00;41.34;101109.69;4959361;28;45251;-39
2023/09/07 00:50:04;;;;;;;;;5.00;5.00;;;;;27.01;41.50;101115.84;4959391;28;45491;-37
2023/09/07 00:52:30;;;;;;;;;7.75;6.50;;;;;27.00;41.55;101106.19;4959253;28;46417;-37
2023/09/07 00:54:55;;;;;;;;;9.75;6.75;;;;;27.00;41.57;101115.03;4941866;28;45297;-39
2023/09/07 00:57:20;;;;;;;;;5.75;5.75;;;;;27.00;42.15;101106.19;4959445;28;45252;-37
2023/09/07 00:59:46;;;;;;;;;7.75;6.00;;;;;27.00;41.33;101112.34;4959688;28;45176;-38
2023/09/07 01:02:11;;;;;;;;;5.25;4.75;;;;;27.01;41.53;101099.88;4958286;28;46162;-38
2023/09/07 01:04:37;;;;;;;;;7.00;6.00;;;;;27.01;41.42;101102.56;4958929;28;45334;-38
2023/09/07 01:07:22;;;;;;;;;6.75;6.00;;;;;27.00;41.47;101099.06;4941446;28;53207;-40
2023/09/07 01:09:54;;;;;;;;;7.00;7.00;;;;;26.99;41.60;101094.69;4958923;28;45271;-37
2023/09/07 01:12:19;;;;;;;;;8.00;5.50;;;;;27.00;41.66;101095.53;4959254;28;46742;-39
2023/09/07 01:14:45;;;;;;;;;7.00;6.75;;;;;27.01;41.90;101097.22;4959073;28;45396;-39
2023/09/07 01:17:13;;;;;;;;;7.75;5.25;;;;;27.01;41.88;101094.56;4959258;28;45491;-42
2023/09/07 01:19:39;;;;;;;;;6.50;6.50;;;;;27.00;41.77;101092.88;4959163;28;45356;-41
2023/09/07 01:22:06;;;;;;;;;7.00;7.00;;;;;27.01;42.14;101099.88;4958753;28;46082;-40
2023/09/07 01:24:34;;;;;;;;;5.75;5.75;;;;;27.01;41.97;101091.91;4958855;28;45397;-42
2023/09/07 01:27:02;;;;;;;;;7.25;5.00;;;;;27.01;41.89;101099.88;4958868;28;45254;-38
2023/09/07 01:29:29;;;;;;;;;7.75;4.75;;;;;27.01;41.90;101091.91;4958934;28;45572;-38
2023/09/07 01:31:54;;;;;;;;;5.50;5.50;;;;;27.00;41.90;101085.75;4958834;28;46115;-38
2023/09/07 01:34:20;;;;;;;;;5.75;5.75;;;;;27.01;41.92;101086.59;4959087;28;45520;-37
2023/09/07 01:36:45;;;;;;;;;5.50;5.50;;;;;27.00;42.08;101091.06;4958853;28;45366;-38
2023/09/07 01:39:10;;;;;;;;;5.00;5.00;;;;;27.00;42.06;101088.41;4957998;28;58747;-40
2023/09/07 01:41:36;;;;;;;;;6.00;6.00;;;;;26.99;41.94;101085.88;4958458;28;45438;-39
2023/09/07 01:44:01;;;;;;;;;8.00;6.00;;;;;27.00;41.95;101087.56;4958373;28;45393;-41
2023/09/07 01:46:26;;;;;;;;;7.25;6.25;;;;;26.99;41.97;101080.53;4958730;28;45347;-37
2023/09/07 01:48:54;;;;;;;;;7.00;6.00;;;;;27.00;42.02;101092.88;4959052;28;45615;-39
2023/09/07 01:51:19;;;;;;;;;6.25;6.25;;;;;27.00;41.77;101087.56;4958694;28;46579;-38
2023/09/07 01:53:48;;;;;;;;;6.50;6.00;;;;;27.00;41.96;101087.56;4958224;28;45246;-38
2023/09/07 01:56:13;;;;;;;;;6.00;6.00;;;;;27.00;42.09;101087.56;4958401;28;45423;-39
2023/09/07 01:58:38;;;;;;;;;6.50;6.50;;;;;26.99;42.02;101086.72;4958455;28;45519;-38
2023/09/07 02:01:04;;;;;;;;;8.75;6.00;;;;;27.00;41.91;101090.22;4940983;28;45461;-39
2023/09/07 02:03:29;;;;;;;;;6.75;5.00;;;;;26.98;42.04;101090.34;4940679;28;52216;-36
2023/09/07 02:05:55;;;;;;;;;7.00;7.00;;;;;27.00;41.88;101091.06;4940653;28;47990;-38
2023/09/07 02:08:20;;;;;;;;;8.25;6.50;;;;;27.00;41.96;101087.56;4958735;28;45630;-39
2023/09/07 02:10:46;;;;;;;;;5.00;5.00;;;;;26.99;42.48;101086.72;4957964;28;45862;-37
2023/09/07 02:13:11;;;;;;;;;8.75;5.50;;;;;26.98;42.27;101085.03;4940493;28;45303;-40
2023/09/07 02:15:40;;;;;;;;;7.00;6.00;;;;;26.98;42.05;101078.84;4940950;28;45244;-38
2023/09/07 02:18:06;;;;;;;;;6.25;6.25;;;;;26.97;42.24;101087.78;4958386;28;45286;-36
2023/09/07 02:20:32;;;;;;;;;8.00;6.75;;;;;26.93;41.89;101087.19;4957872;28;45585;-37
2023/09/07 02:22:57;;;;;;;;;7.25;6.75;;;;;26.92;42.20;101084.66;4957988;28;45784;-36
2023/09/07 02:25:23;;;;;;;;;7.00;5.75;;;;;26.91;42.00;101086.47;4958297;28;45314;-37
2023/09/07 02:27:48;;;;;;;;;5.50;5.50;;;;;26.88;42.02;101081.41;4957793;28;45314;-38
2023/09/07 02:30:13;;;;;;;;;6.25;6.00;;;;;26.87;41.66;101077.06;4940606;28;46150;-39
2023/09/07 02:32:42;;;;;;;;;6.00;6.00;;;;;26.87;41.79;101086.81;4957324;28;55489;-40
2023/09/07 02:35:08;;;;;;;;;9.75;7.75;;;;;26.84;41.91;101082.59;4957858;28;45299;-40
2023/09/07 02:37:33;;;;;;;;;7.00;7.00;;;;;26.82;41.85;101080.06;4957967;28;45312;-37
2023/09/07 02:39:58;;;;;;;;;6.00;6.00;;;;;26.81;42.11;101080.19;4957506;28;46131;-38
2023/09/07 02:42:24;;;;;;;;;8.00;6.25;;;;;26.79;41.89;101085.63;4957775;28;45338;-37
2023/09/07 02:44:49;;;;;;;;;7.00;6.25;;;;;26.79;42.01;101085.63;4957891;28;45168;-37
2023/09/07 02:47:15;;;;;;;;;6.00;6.00;;;;;26.79;41.79;101079.47;4957966;28;45199;-36
2023/09/07 02:49:41;;;;;;;;;11.00;9.00;;;;;26.78;42.15;101088.41;4957360;28;45353;-37
2023/09/07 02:52:06;;;;;;;;;5.75;5.75;;;;;26.75;41.98;101084.13;4957439;28;45267;-39
2023/09/07 02:54:31;;;;;;;;;9.50;6.75;;;;;26.73;42.07;101079.91;4957116;28;53142;-39
2023/09/07 02:56:57;;;;;;;;;6.00;6.00;;;;;26.74;42.09;101085.09;4940574;28;46016;-36
2023/09/07 02:59:22;;;;;;;;;8.00;7.00;;;;;26.74;41.88;101076.28;4957834;28;46663;-39
2023/09/07 03:01:47;;;;;;;;;5.25;5.00;;;;;26.73;42.01;101079.91;4957534;28;45449;-35
2023/09/07 03:04:13;;;;;;;;;6.00;6.00;;;;;26.70;41.86;101076.53;4957115;28;49069;-40
2023/09/07 03:06:38;;;;;;;;;7.00;6.00;;;;;26.69;42.05;101074.81;4957622;28;45465;-38
2023/09/07 03:09:08;;;;;;;;;7.00;6.50;;;;;26.68;41.85;101077.63;4957108;28;49958;-40
2023/09/07 03:11:35;;;;;;;;;6.50;6.25;;;;;26.68;42.19;101077.63;4957153;28;45667;-39
2023/09/07 03:14:00;;;;;;;;;6.00;6.00;;;;;26.64;41.99;101065.50;4957483;28;45211;-39
2023/09/07 03:16:26;;;;;;;;;7.50;7.00;;;;;26.64;41.84;101070.84;4957914;28;45564;-39
2023/09/07 03:18:51;;;;;;;;;8.00;8.00;;;;;26.62;41.82;101068.31;4957153;28;45164;-37
2023/09/07 03:21:17;;;;;;;;;7.50;6.00;;;;;26.63;41.58;101066.47;4957090;28;45394;-39
2023/09/07 03:23:44;;;;;;;;;6.00;6.00;;;;;26.62;41.91;101072.78;4957213;28;45429;-41
2023/09/07 03:26:10;;;;;;;;;9.00;8.00;;;;;26.61;41.98;101071.09;4957137;28;45424;-40
2023/09/07 03:28:36;;;;;;;;;5.25;5.25;;;;;26.60;42.03;101066.75;4939733;28;46829;-37
2023/09/07 03:31:01;;;;;;;;;7.25;7.25;;;;;26.60;41.85;101074.72;4957063;28;45313;-39
2023/09/07 03:33:27;;;;;;;;;7.25;7.25;;;;;26.61;41.73;101073.75;4959929;28;45212;-39
2023/09/07 03:35:52;;;;;;;;;6.00;5.75;;;;;26.60;42.47;101072.06;4960826;28;45577;-44
2023/09/07 03:38:17;;;;;;;;;6.50;6.00;;;;;26.59;42.05;101067.69;4942690;28;56007;-40
2023/09/07 03:40:43;;;;;;;;;7.00;7.00;;;;;26.57;42.13;101064.31;4959805;28;55816;-42
2023/09/07 03:43:09;;;;;;;;;6.00;6.00;;;;;26.57;42.03;101064.31;4960591;28;45446;-38
2023/09/07 03:45:34;;;;;;;;;6.25;6.25;;;;;26.56;42.42;101071.47;4960709;28;45489;-39
2023/09/07 03:47:59;;;;;;;;;7.25;6.50;;;;;26.53;41.70;101069.84;4960119;28;52249;-38
2023/09/07 03:50:25;;;;;;;;;9.50;7.25;;;;;26.53;42.04;101069.84;4960686;28;45327;-35
2023/09/07 03:52:50;;;;;;;;;7.50;7.00;;;;;26.53;42.09;101071.69;4960377;28;45235;-36
2023/09/07 03:55:15;;;;;;;;;8.00;6.25;;;;;26.51;42.14;101077.09;4960352;28;45233;-39
2023/09/07 03:57:41;;;;;;;;;8.75;8.00;;;;;26.50;41.94;101074.56;4959931;28;52504;-37
2023/09/07 04:00:08;;;;;;;;;9.00;6.25;;;;;26.49;42.02;101078.19;4960016;28;45244;-42
2023/09/07 04:02:34;;;;;;;;;8.25;7.25;;;;;26.49;42.12;101078.19;4960256;28;45468;-36
2023/09/07 04:05:01;;;;;;;;;7.00;6.00;;;;;26.47;41.92;101083.63;4960644;28;45270;-37
2023/09/07 04:07:27;;;;;;;;;9.50;8.50;;;;;26.46;42.41;101081.94;4959506;28;46688;-37
2023/09/07 04:09:52;;;;;;;;;7.00;7.00;;;;;26.44;42.30;101075.88;4959837;28;45287;-40
2023/09/07 04:12:17;;;;;;;;;8.25;7.00;;;;;26.45;41.98;101077.59;4960155;28;45183;-40
2023/09/07 04:14:44;;;;;;;;;6.25;6.25;;;;;26.44;41.94;101075.06;4960007;28;45342;-38
2023/09/07 04:17:09;;;;;;;;;8.00;6.75;;;;;26.43;42.19;101076.03;4959758;28;46677;-40
2023/09/07 04:19:34;;;;;;;;;11.00;8.00;;;;;26.43;42.05;101076.03;4959848;28;45331;-38
2023/09/07 04:22:00;;;;;;;;;7.75;7.00;;;;;26.41;42.39;101070.81;4960266;28;45232;-42
2023/09/07 04:24:27;;;;;;;;;13.25;9.25;;;;;26.42;42.16;101075.16;4959728;28;45662;-39
2023/09/07 04:26:53;;;;;;;;;13.00;7.75;;;;;26.39;42.18;101072.75;4959752;28;46473;-40
2023/09/07 04:29:18;;;;;;;;;9.00;6.00;;;;;26.38;42.37;101071.91;4959715;28;45362;-37
2023/09/07 04:31:43;;;;;;;;;10.00;8.75;;;;;26.39;42.20;101070.09;4959859;28;45279;-40
2023/09/07 04:34:09;;;;;;;;;12.75;9.50;;;;;26.39;42.07;101076.25;4959727;28;45386;-39
2023/09/07 04:36:34;;;;;;;;;11.50;8.75;;;;;26.39;42.09;101075.41;4958870;28;61100;-37
2023/09/07 04:38:59;;;;;;;;;11.00;9.00;;;;;26.38;42.25;101076.38;4959548;28;45350;-40
2023/09/07 04:41:25;;;;;;;;;8.75;8.25;;;;;26.38;42.40;101073.72;4959708;28;45281;-39
2023/09/07 04:43:50;;;;;;;;;11.00;9.75;;;;;26.36;42.35;101071.16;4958638;28;45425;-39
2023/09/07 04:46:15;;;;;;;;;11.25;8.75;;;;;26.37;42.20;101067.53;4959228;28;45552;-38
2023/09/07 04:48:41;;;;;;;;;8.75;8.75;;;;;26.38;42.40;101071.06;4958891;28;55828;-41
2023/09/07 04:51:08;;;;;;;;;12.50;9.00;;;;;26.37;42.35;101074.69;4959422;28;45360;-37
2023/09/07 04:53:36;;;;;;;;;10.75;8.75;;;;;26.35;42.45;101072.13;4959385;28;45540;-38
2023/09/07 04:56:03;;;;;;;;;8.75;8.75;;;;;26.34;42.05;101066.94;4959648;28;45670;-40
2023/09/07 04:58:28;;;;;;;;;8.00;8.00;;;;;26.35;42.26;101074.78;4959331;28;45243;-39
2023/09/07 05:00:54;;;;;;;;;11.00;8.00;;;;;26.34;41.92;101077.56;4959452;28;45350;-41
2023/09/07 05:03:19;;;;;;;;;11.00;9.00;;;;;26.33;42.54;101073.22;4959453;28;45721;-37
2023/09/07 05:05:45;;;;;;;;;8.75;8.00;;;;;26.34;42.18;101077.56;4958956;28;46157;-39
2023/09/07 05:08:10;;;;;;;;;9.75;8.00;;;;;26.32;42.37;101077.69;4958807;28;45378;-38
2023/09/07 05:10:37;;;;;;;;;7.00;6.25;;;;;26.33;42.28;101084.69;4959369;28;45439;-38
2023/09/07 05:13:03;;;;;;;;;5.75;3.00;;;;;26.34;42.24;101090.84;4959611;28;45712;-41
2023/09/07 05:15:28;;;;;;;;;7.25;7.00;;;;;26.34;42.41;101085.53;4941700;28;46370;-39
2023/09/07 05:17:54;;;;;;;;;9.75;8.00;;;;;26.35;42.34;101088.06;4957978;28;62590;-38
2023/09/07 05:20:20;;;;;;;;;9.00;7.75;;;;;26.35;42.45;101089.88;4958815;28;45803;-38
2023/09/07 05:22:45;;;;;;;;;7.25;6.00;;;;;26.34;42.15;101085.53;4958779;28;45283;-38
2023/09/07 05:25:11;;;;;;;;;10.00;7.75;;;;;26.32;42.33;101088.31;4958806;28;46004;-43
2023/09/07 05:27:37;;;;;;;;;10.50;8.00;;;;;26.31;42.56;101091.94;4941070;28;45418;-38
2023/09/07 05:30:04;;;;;;;;;10.00;10.00;;;;;26.30;42.62;101089.38;4958953;28;45567;-41
2023/09/07 05:32:29;;;;;;;;;9.00;8.00;;;;;26.28;42.38;101086.03;4958888;28;45270;-39
2023/09/07 05:34:54;;;;;;;;;10.75;7.75;;;;;26.28;42.37;101096.66;4958488;28;45361;-42
2023/09/07 05:37:20;;;;;;;;;10.25;9.25;;;;;26.28;42.37;101094.00;4958230;28;45455;-38
2023/09/07 05:39:45;;;;;;;;;11.00;9.00;;;;;26.28;42.21;101096.66;4958292;28;52051;-40
2023/09/07 05:42:12;;;;;;;;;8.50;8.25;;;;;26.28;42.43;101099.31;4958932;28;45554;-39
2023/09/07 05:44:37;;;;;;;;;9.75;8.50;;;;;26.27;42.37;101097.59;4958319;28;47080;-36
2023/09/07 05:47:03;;;;;;;;;8.75;8.25;;;;;26.28;42.54;101096.66;4941253;28;45184;-37
2023/09/07 05:49:28;;;;;;;;;10.00;8.25;;;;;26.26;42.57;101098.56;4958179;28;45395;-37
2023/09/07 05:51:54;;;;;;;;;9.50;9.00;;;;;26.28;42.39;101107.28;4958498;28;45164;-41
2023/09/07 05:54:19;;;;;;;;;9.50;7.75;;;;;26.27;42.78;101105.56;4958194;28;46472;-37
2023/09/07 05:56:44;;;;;;;;;9.00;8.75;;;;;26.27;42.32;101100.25;4958032;28;45246;-40
2023/09/07 05:59:10;;;;;;;;;9.75;8.00;;;;;26.27;42.57;101100.25;4958386;28;45228;-38
2023/09/07 06:01:35;;;;;;;;;9.75;9.00;;;;;26.27;42.45;101100.25;4953215;28;45171;-39
2023/09/07 06:04:00;;;;;;;;;10.00;9.00;;;;;26.26;42.56;101110.03;4954727;28;45465;-38
2023/09/07 06:06:26;;;;;;;;;10.75;8.25;;;;;26.24;42.57;101112.81;4958245;28;45339;-36
2023/09/07 06:08:51;;;;;;;;;11.75;9.00;;;;;26.25;42.44;101111.00;4958110;28;45344;-37
2023/09/07 06:11:16;;;;;;;;;10.25;8.00;;;;;26.23;42.86;101107.63;4958427;28;45461;-36
2023/09/07 06:13:42;;;;;;;;;11.50;10.75;;;;;26.23;42.90;101108.47;4957525;28;46167;-38
2023/09/07 06:16:07;;;;;;;;;11.25;9.75;;;;;26.23;42.67;101104.97;4958099;28;45334;-38
2023/09/07 06:18:32;;;;;;;;;9.00;8.25;;;;;26.22;42.82;101117.38;4958444;28;45459;-41
2023/09/07 06:20:58;;;;;;;;;11.00;8.00;;;;;26.21;43.18;101115.69;4958049;28;45737;-38
2023/09/07 06:23:23;;;;;;;;;14.25;9.00;;;;;26.21;42.95;101118.34;4957508;28;53985;-38
2023/09/07 06:25:49;;;;;;;;;11.00;8.25;;;;;26.20;42.74;101114.00;4957866;28;45442;-37
2023/09/07 06:28:14;;;;;;;;;10.25;10.25;;;;;26.21;42.72;101117.50;4957886;28;45367;-36
2023/09/07 06:30:39;;;;;;;;;10.50;9.00;;;;;26.18;42.73;101113.25;4957578;28;46941;-37
2023/09/07 06:33:05;;;;;;;;;10.75;9.25;;;;;26.20;42.73;101111.34;4957739;28;46086;-37
2023/09/07 06:35:30;;;;;;;;;12.00;10.50;;;;;26.19;42.96;101109.66;4957699;28;46080;-37
2023/09/07 06:37:56;;;;;;;;;10.75;9.75;;;;;26.18;42.93;101107.94;4957449;28;51509;-38
2023/09/07 06:40:21;;;;;;;;;9.00;9.00;;;;;26.18;43.34;101107.94;4957983;28;45327;-38
2023/09/07 06:42:47;;;;;;;;;10.75;10.75;;;;;26.19;42.94;101104.31;4957529;28;46571;-40
2023/09/07 06:45:12;;;;;;;;;9.75;9.25;;;;;26.21;42.70;101112.19;4957352;28;53432;-38
2023/09/07 06:47:37;;;;;;;;;8.75;8.75;;;;;26.20;43.08;101108.69;4958094;28;45276;-41
2023/09/07 06:50:04;;;;;;;;;9.00;9.00;;;;;26.20;42.39;101114.00;4957745;28;45220;-43
2023/09/07 06:52:29;;;;;;;;;10.25;9.75;;;;;26.20;43.17;101116.66;4957553;28;45416;-42
2023/09/07 06:54:55;;;;;;;;;10.75;8.75;;;;;26.21;43.10;101121.00;4957711;28;45239;-43
2023/09/07 06:57:20;;;;;;;;;12.25;9.75;;;;;26.22;42.95;101120.03;4957403;28;45370;-44
2023/09/07 06:59:46;;;;;;;;;11.25;9.75;;;;;26.23;42.88;101115.59;4957855;28;45342;-40
2023/09/07 07:02:11;;;;;;;;;13.00;8.75;;;;;26.22;42.91;101120.03;4957539;28;46133;-40
2023/09/07 07:04:36;;;;;;;;;13.25;10.75;;;;;26.22;43.28;101117.38;4948762;28;45434;-37
2023/09/07 07:07:04;;;;;;;;;11.75;9.50;;;;;26.22;42.95;101120.03;4946953;28;45314;-37
2023/09/07 07:09:33;;;;;;;;;11.00;10.00;;;;;26.24;43.28;101123.44;4947822;28;45356;-38
2023/09/07 07:12:02;;;;;;;;;13.25;10.25;;;;;26.22;42.68;101113.91;4945870;28;46653;-38
2023/09/07 07:14:28;;;;;;;;;10.00;8.00;;;;;26.24;43.00;101118.13;4946683;28;45409;-41
2023/09/07 07:16:53;;;;;;;;;12.25;9.25;;;;;26.22;42.98;101117.38;4948046;28;45475;-39
2023/09/07 07:19:18;;;;;;;;;12.50;12.00;;;;;26.23;43.15;101115.59;4945967;28;45549;-39
2023/09/07 07:21:44;;;;;;;;;11.50;11.50;;;;;26.24;42.71;101119.91;4947105;28;45410;-38
2023/09/07 07:24:10;;;;;;;;;10.00;10.00;;;;;26.23;43.23;101113.78;4947529;28;45399;-36
2023/09/07 07:26:35;;;;;;;;;13.25;11.75;;;;;26.25;42.81;101113.66;4945885;28;45442;-34
2023/09/07 07:29:02;;;;;;;;;10.75;10.50;;;;;26.20;43.08;101114.00;4957371;28;45323;-38
2023/09/07 07:31:29;;;;;;;;;10.75;10.75;;;;;26.24;43.02;101112.81;4956851;28;47426;-37
2023/09/07 07:33:55;;;;;;;;;11.00;9.00;;;;;26.23;42.79;101119.09;4956836;28;45659;-34
2023/09/07 07:36:20;;;;;;;;;10.25;9.25;;;;;26.23;42.97;101116.44;4957165;28;45386;-33
2023/09/07 07:38:46;;;;;;;;;10.75;9.75;;;;;26.22;42.89;101120.03;4939914;28;45484;-35
2023/09/07 07:41:11;;;;;;;;;10.25;10.00;;;;;26.17;42.56;101106.28;4957218;28;45468;-35
2023/09/07 07:43:36;;;;;;;;;10.50;10.50;;;;;26.22;42.60;101117.38;4957056;28;45233;-37
2023/09/07 07:46:02;;;;;;;;;10.00;10.00;;;;;26.21;42.79;101113.03;4957102;28;45590;-34
2023/09/07 07:48:29;;;;;;;;;10.00;9.00;;;;;26.23;42.51;101113.78;4956686;28;45461;-37
2023/09/07 07:50:54;;;;;;;;;10.75;8.50;;;;;26.24;42.64;101122.56;4956510;28;46375;-35
2023/09/07 07:53:20;;;;;;;;;13.25;10.50;;;;;26.26;42.77;101118.00;4939419;28;45378;-36
2023/09/07 07:55:45;;;;;;;;;9.50;9.50;;;;;26.28;42.74;101128.53;4956323;28;56153;-35
2023/09/07 07:58:10;;;;;;;;;11.25;10.25;;;;;26.30;42.53;101118.59;4951524;28;46265;-35
2023/09/07 08:00:37;;;;;;;;;10.00;7.25;;;;;26.32;42.63;101116.69;4947376;28;46671;-34
2023/09/07 08:03:03;;;;;;;;;8.25;8.25;;;;;26.33;42.97;101127.22;4945968;28;45202;-36
2023/09/07 08:05:29;;;;;;;;;9.50;8.25;;;;;26.35;42.91;101119.13;4946196;28;45199;-36
2023/09/07 08:07:55;;;;;;;;;14.50;9.25;;;;;26.37;42.70;101127.81;4947659;28;45422;-37
2023/09/07 08:10:21;;;;;;;;;11.75;9.25;;;;;26.39;42.52;101123.25;4945509;28;45512;-39
2023/09/07 08:12:46;;;;;;;;;9.25;9.25;;;;;26.39;42.89;101124.09;4946240;28;45526;-37
2023/09/07 08:15:11;;;;;;;;;10.25;8.00;;;;;26.40;42.38;101130.25;4947463;28;45453;-36
2023/09/07 08:17:37;;;;;;;;;12.00;9.00;;;;;26.40;42.54;101119.63;4945464;28;45590;-37
2023/09/07 08:20:03;;;;;;;;;10.75;10.25;;;;;26.41;42.57;101118.63;4949696;28;47114;-36
2023/09/07 08:22:28;;;;;;;;;10.25;8.50;;;;;26.42;42.60;101130.97;4947782;28;45537;-37
2023/09/07 08:24:55;;;;;;;;;10.25;10.25;;;;;26.42;42.63;101128.31;4940555;28;45406;-37
2023/09/07 08:27:21;;;;;;;;;12.00;8.25;;;;;26.42;42.56;101125.66;4940844;28;45534;-34
2023/09/07 08:29:48;;;;;;;;;11.25;9.00;;;;;26.43;42.80;101121.19;4940273;28;46219;-39
2023/09/07 08:32:14;;;;;;;;;12.25;10.25;;;;;26.42;42.55;101114.19;4940671;28;45648;-36
2023/09/07 08:34:41;;;;;;;;;10.25;9.00;;;;;26.42;42.38;101120.34;4940480;28;45411;-36
2023/09/07 08:37:08;;;;;;;;;12.00;9.00;;;;;26.45;42.79;101114.78;4940609;28;45552;-34
2023/09/07 08:39:34;;;;;;;;;8.75;8.00;;;;;26.46;42.71;101115.66;4940172;28;46748;-33
2023/09/07 08:42:00;;;;;;;;;12.00;9.25;;;;;26.46;42.95;101116.50;4940218;28;45351;-36
2023/09/07 08:44:26;;;;;;;;;11.75;9.75;;;;;26.45;42.56;101120.09;4922975;28;45370;-39
2023/09/07 08:46:52;;;;;;;;;8.75;7.50;;;;;26.47;42.68;101115.53;4939944;28;45426;-35
2023/09/07 08:49:23;;;;;;;;;8.00;8.00;;;;;26.48;42.98;101116.38;4938464;28;45636;-35
2023/09/07 08:51:49;;;;;;;;;9.50;9.50;;;;;26.48;42.82;101111.03;4939844;28;45796;-37
2023/09/07 08:54:15;;;;;;;;;14.25;8.75;;;;;26.49;42.78;101110.94;4940365;28;45373;-37
2023/09/07 08:56:40;;;;;;;;;9.50;9.50;;;;;26.48;42.66;101108.38;4940201;28;45580;-38
2023/09/07 08:59:06;;;;;;;;;7.75;7.75;;;;;26.49;42.66;101105.63;4939947;28;45342;-36
2023/09/07 09:01:32;;;;;;;;;16.25;9.75;;;;;26.49;42.78;101100.31;4921981;28;61275;-35
2023/09/07 09:03:58;;;;;;;;;12.00;10.00;;;;;26.49;42.96;101102.13;4922716;28;45310;-37
2023/09/07 09:06:23;;;;;;;;;9.50;9.50;;;;;26.51;42.63;101098.38;4940088;28;45237;-39
2023/09/07 09:08:50;;;;;;;;;11.50;9.75;;;;;26.53;42.73;101098.25;4939848;28;45621;-35
2023/09/07 09:11:16;;;;;;;;;11.50;9.50;;;;;26.51;42.62;101097.53;4940167;28;45228;-38
2023/09/07 09:13:42;;;;;;;;;9.75;9.00;;;;;26.53;42.69;101096.44;4939913;28;45328;-37
2023/09/07 09:16:08;;;;;;;;;9.75;9.25;;;;;26.54;42.79;101097.31;4939979;28;45582;-35
2023/09/07 09:18:33;;;;;;;;;10.25;8.50;;;;;26.53;42.74;101095.59;4939754;28;45496;-36
2023/09/07 09:20:59;;;;;;;;;10.00;8.75;;;;;26.53;42.38;101099.09;4939606;28;45407;-38
2023/09/07 09:23:30;;;;;;;;;9.00;9.00;;;;;26.54;42.81;101097.31;4939137;28;52291;-37
2023/09/07 09:25:56;;;;;;;;;11.00;9.00;;;;;26.57;42.69;101098.88;4939841;28;45176;-36
2023/09/07 09:28:21;;;;;;;;;11.25;10.25;;;;;26.59;42.92;101099.59;4922185;28;47833;-36
2023/09/07 09:30:48;;;;;;;;;12.00;9.25;;;;;26.58;43.08;101100.56;4939069;28;45332;-34
2023/09/07 09:33:14;;;;;;;;;13.00;10.25;;;;;26.59;42.93;101107.56;4939585;28;45781;-36
2023/09/07 09:35:42;;;;;;;;;11.25;10.75;;;;;26.59;42.40;101110.22;4939453;28;45797;-35
2023/09/07 09:38:07;;;;;;;;;9.75;9.75;;;;;26.60;43.00;101101.28;4939382;28;46544;-33
2023/09/07 09:40:37;;;;;;;;;11.00;10.50;;;;;26.60;42.86;101107.44;4939408;28;45443;-37
2023/09/07 09:43:03;;;;;;;;;10.75;9.00;;;;;26.60;42.80;101095.97;4939366;28;45417;-41
2023/09/07 09:45:29;;;;;;;;;11.25;9.25;;;;;26.61;42.79;101095.03;4939489;28;45338;-36
2023/09/07 09:48:00;;;;;;;;;13.50;10.75;;;;;26.61;42.84;101108.31;4939097;28;45647;-35
2023/09/07 09:50:25;;;;;;;;;12.50;10.25;;;;;26.62;43.04;101107.34;4939179;28;45640;-36
2023/09/07 09:52:53;;;;;;;;;12.00;10.75;;;;;26.62;42.98;101102.03;4939421;28;45308;-36
2023/09/07 09:55:19;;;;;;;;;8.75;8.75;;;;;26.62;43.00;101096.72;4939848;28;45310;-37
2023/09/07 09:57:44;;;;;;;;;8.00;6.25;;;;;26.63;42.82;101101.03;4939042;28;46526;-36
2023/09/07 10:00:21;;;;;;;;;10.00;10.00;;;;;26.64;42.93;101102.72;4939073;28;45369;-34
2023/09/07 10:03:02;;;;;;;;;15.00;11.00;;;;;26.64;42.92;101102.72;4939369;28;45410;-37
2023/09/07 10:05:27;;;;;;;;;9.50;9.50;;;;;26.64;42.87;101105.38;4939233;28;45336;-37
2023/09/07 10:07:59;;;;;;;;;12.75;11.25;;;;;26.65;42.86;101105.28;4938944;28;46187;-34
2023/09/07 10:10:24;;;;;;;;;13.00;11.00;;;;;26.65;43.21;101099.97;4938836;28;45950;-38
2023/09/07 10:12:53;;;;;;;;;10.75;9.00;;;;;26.66;42.77;101100.81;4938779;28;54232;-36
2023/09/07 10:15:24;;;;;;;;;8.25;8.25;;;;;26.66;42.89;101101.66;4939372;28;45487;-37
2023/09/07 10:17:50;;;;;;;;;9.00;7.50;;;;;26.66;43.01;101092.84;4938990;28;45296;-36
2023/09/07 10:20:17;;;;;;;;;9.75;8.25;;;;;26.66;43.07;101093.69;4921327;28;45400;-42
2023/09/07 10:22:43;;;;;;;;;11.75;9.00;;;;;26.65;43.06;101099.97;4921513;28;45388;-38
2023/09/07 10:25:22;;;;;;;;;9.25;9.25;;;;;26.69;43.16;101105.91;4938797;28;45488;-38
2023/09/07 10:27:48;;;;;;;;;12.00;9.50;;;;;26.69;43.09;101095.25;4938910;28;46136;-41
2023/09/07 10:30:15;;;;;;;;;11.50;10.50;;;;;26.68;43.10;101094.41;4938544;28;45203;-36
2023/09/07 10:32:41;;;;;;;;;13.00;11.25;;;;;26.69;43.16;101089.94;4921329;28;45394;-37
2023/09/07 10:35:17;;;;;;;;;11.75;10.75;;;;;26.69;43.06;101088.13;4938713;28;45476;-36
2023/09/07 10:37:47;;;;;;;;;12.25;9.50;;;;;26.69;42.81;101085.47;4920896;28;46265;-35
2023/09/07 10:40:13;;;;;;;;;12.25;10.00;;;;;26.70;43.77;101091.63;4938457;28;45341;-37
2023/09/07 10:42:39;;;;;;;;;6.75;6.75;;;;;26.70;43.68;101096.97;4937335;28;45448;-37
2023/09/07 10:45:16;;;;;;;;;12.25;10.50;;;;;26.71;43.20;101088.03;4938591;28;45549;-35
2023/09/07 10:47:45;;;;;;;;;11.50;10.00;;;;;26.71;43.04;101082.69;4938215;28;46196;-34
2023/09/07 10:50:13;;;;;;;;;12.75;11.00;;;;;26.72;43.35;101088.84;4937941;28;45693;-36
2023/09/07 10:52:41;;;;;;;;;13.25;9.75;;;;;26.72;43.22;101081.75;4938337;28;45300;-36
2023/09/07 10:55:07;;;;;;;;;10.00;9.50;;;;;26.72;43.25;101076.41;4938602;28;45517;-37
2023/09/07 10:57:41;;;;;;;;;15.00;12.50;;;;;26.73;43.17;101069.28;4938256;28;46134;-38
2023/09/07 11:00:10;;;;;;;;;10.75;9.50;;;;;26.72;43.40;101071.09;4938336;28;45860;-36
2023/09/07 11:02:38;;;;;;;;;10.25;10.25;;;;;26.74;43.14;101076.28;4938284;28;45262;-36
2023/09/07 11:05:05;;;;;;;;;13.25;12.00;;;;;26.73;43.13;101056.84;4938395;28;45505;-35
2023/09/07 11:07:30;;;;;;;;;13.25;10.00;;;;;26.75;43.09;101067.34;4938216;28;45753;-36
2023/09/07 11:09:56;;;;;;;;;13.00;10.75;;;;;26.75;43.22;101068.19;4938104;28;45343;-38
2023/09/07 11:12:21;;;;;;;;;14.00;11.25;;;;;26.75;43.27;101062.88;4938349;28;45355;-36
2023/09/07 11:14:50;;;;;;;;;12.00;10.50;;;;;26.76;43.20;101061.91;4938265;28;45454;-34